createdAt,value
2017-02-08T00:00:29.191Z,1013.64
2017-02-08T00:01:39.782Z,1013.61
2017-02-08T00:02:50.042Z,1013.65
2017-02-08T00:04:00.684Z,1013.65
2017-02-08T00:05:10.927Z,1013.63
2017-02-08T00:06:21.582Z,1013.66
2017-02-08T00:07:32.546Z,1013.66
2017-02-08T00:08:43.204Z,1013.65
2017-02-08T00:09:53.881Z,1013.68
2017-02-08T00:11:04.523Z,1013.67
2017-02-08T00:12:14.773Z,1013.65
2017-02-08T00:13:25.664Z,1013.67
2017-02-08T00:14:35.917Z,1013.63
2017-02-08T00:15:46.554Z,1013.68
2017-02-08T00:16:56.404Z,1013.66
2017-02-08T00:18:06.251Z,1013.7
2017-02-08T00:19:16.743Z,1013.68
2017-02-08T00:20:27.378Z,1013.68
2017-02-08T00:21:37.622Z,1013.72
2017-02-08T00:22:47.874Z,1013.72
2017-02-08T00:23:58.524Z,1013.73
2017-02-08T00:25:08.140Z,1013.74
2017-02-08T00:26:17.998Z,1013.72
2017-02-08T00:27:28.242Z,1013.74
2017-02-08T00:28:38.513Z,1013.74
2017-02-08T00:29:47.586Z,1013.72
2017-02-08T00:30:57.798Z,1013.78
2017-02-08T00:32:08.459Z,1013.75
2017-02-08T00:33:18.735Z,1013.78
2017-02-08T00:34:28.595Z,1013.76
2017-02-08T00:35:39.229Z,1013.78
2017-02-08T00:36:49.631Z,1013.77
2017-02-08T00:37:59.871Z,1013.76
2017-02-08T00:39:10.536Z,1013.79
2017-02-08T00:40:20.012Z,1013.77
2017-02-08T00:41:30.675Z,1013.8
2017-02-08T00:42:41.182Z,1013.75
2017-02-08T00:43:51.041Z,1013.78
2017-02-08T00:45:01.690Z,1013.79
2017-02-08T00:46:11.543Z,1013.8
2017-02-08T00:47:21.778Z,1013.77
2017-02-08T00:48:32.511Z,1013.8
2017-02-08T00:49:43.175Z,1013.77
2017-02-08T00:50:53.423Z,1013.76
2017-02-08T00:52:03.692Z,1013.79
2017-02-08T00:53:13.926Z,1013.72
2017-02-08T00:54:24.022Z,1013.75
2017-02-08T00:55:34.656Z,1013.8
2017-02-08T00:56:45.315Z,1013.79
2017-02-08T00:57:55.946Z,1013.84
2017-02-08T00:59:06.191Z,1013.79
2017-02-08T01:00:17.075Z,1013.8
2017-02-08T01:01:27.310Z,1013.78
2017-02-08T01:02:37.185Z,1013.82
2017-02-08T01:03:47.429Z,1013.81
2017-02-08T01:04:57.676Z,1013.78
2017-02-08T01:06:08.025Z,1013.82
2017-02-08T01:07:17.494Z,1013.79
2017-02-08T01:08:27.352Z,1013.8
2017-02-08T01:09:38.024Z,1013.85
2017-02-08T01:10:48.649Z,1013.85
2017-02-08T01:11:59.135Z,1013.86
2017-02-08T01:13:09.376Z,1013.91
2017-02-08T01:14:19.275Z,1013.93
2017-02-08T01:15:29.527Z,1013.93
2017-02-08T01:16:40.162Z,1013.93
2017-02-08T01:17:50.222Z,1013.95
2017-02-08T01:19:00.463Z,1013.93
2017-02-08T01:20:10.717Z,1013.98
2017-02-08T01:21:20.603Z,1013.99
2017-02-08T01:22:30.461Z,1013.94
2017-02-08T01:23:40.854Z,1013.98
2017-02-08T01:24:51.501Z,1013.99
2017-02-08T01:26:01.755Z,1014
2017-02-08T01:27:11.996Z,1013.98
2017-02-08T01:28:22.631Z,1013.98
2017-02-08T01:29:33.419Z,1013.96
2017-02-08T01:30:44.049Z,1014
2017-02-08T01:31:54.695Z,1013.95
2017-02-08T01:33:04.154Z,1014.02
2017-02-08T01:34:14.787Z,1013.99
2017-02-08T01:35:25.727Z,1014.03
2017-02-08T01:36:35.578Z,1014.03
2017-02-08T01:37:45.812Z,1014.05
2017-02-08T01:38:56.444Z,1014.05
2017-02-08T01:40:05.913Z,1014.03
2017-02-08T01:41:16.115Z,1014.06
2017-02-08T01:42:26.739Z,1014.06
2017-02-08T01:43:36.982Z,1014.06
2017-02-08T01:44:47.218Z,1014.02
2017-02-08T01:45:57.462Z,1014.03
2017-02-08T01:47:08.336Z,1014.04
2017-02-08T01:48:18.974Z,1014.04
2017-02-08T01:49:29.223Z,1014.04
2017-02-08T01:50:39.860Z,1014.05
2017-02-08T01:51:50.489Z,1014.09
2017-02-08T01:53:00.841Z,1014.03
2017-02-08T01:54:11.086Z,1014.01
2017-02-08T01:55:20.945Z,1014.01
2017-02-08T01:56:31.195Z,1014
2017-02-08T01:57:42.118Z,1013.98
2017-02-08T01:58:52.859Z,1013.98
2017-02-08T02:00:02.320Z,1014.03
2017-02-08T02:01:12.181Z,1014.03
2017-02-08T02:02:22.839Z,1014.04
2017-02-08T02:03:33.473Z,1014.02
2017-02-08T02:04:44.069Z,1014.01
2017-02-08T02:05:54.315Z,1014.05
2017-02-08T02:07:04.172Z,1014.06
2017-02-08T02:08:14.424Z,1014.06
2017-02-08T02:09:25.067Z,1014.09
2017-02-08T02:10:36.063Z,1014.04
2017-02-08T02:11:46.305Z,1014.06
2017-02-08T02:12:56.555Z,1014.03
2017-02-08T02:14:06.781Z,1014.03
2017-02-08T02:15:16.247Z,1014.03
2017-02-08T02:16:27.230Z,1014.05
2017-02-08T02:17:37.463Z,1014.04
2017-02-08T02:18:47.313Z,1014.03
2017-02-08T02:19:57.939Z,1014.02
2017-02-08T02:21:08.178Z,1014.02
2017-02-08T02:22:19.063Z,1014.03
2017-02-08T02:23:29.316Z,1014.04
2017-02-08T02:24:39.558Z,1014.06
2017-02-08T02:25:50.185Z,1014.05
2017-02-08T02:27:00.420Z,1014.03
2017-02-08T02:28:10.378Z,1014.11
2017-02-08T02:29:20.604Z,1014.09
2017-02-08T02:30:30.889Z,1014.06
2017-02-08T02:31:41.512Z,1014.07
2017-02-08T02:32:51.370Z,1014.09
2017-02-08T02:34:02.248Z,1014.1
2017-02-08T02:35:12.905Z,1014.1
2017-02-08T02:36:22.359Z,1014.08
2017-02-08T02:37:32.606Z,1014.08
2017-02-08T02:38:43.277Z,1014.11
2017-02-08T02:39:54.147Z,1014.09
2017-02-08T02:41:04.397Z,1014.16
2017-02-08T02:42:15.035Z,1014.12
2017-02-08T02:43:25.280Z,1014.1
2017-02-08T02:44:35.930Z,1014.1
2017-02-08T02:45:46.502Z,1014.13
2017-02-08T02:46:56.732Z,1014.13
2017-02-08T02:48:06.986Z,1014.12
2017-02-08T02:49:17.235Z,1014.13
2017-02-08T02:50:27.482Z,1014.11
2017-02-08T02:51:37.251Z,1014.16
2017-02-08T02:52:47.099Z,1014.16
2017-02-08T02:53:57.342Z,1014.19
2017-02-08T02:55:07.208Z,1014.25
2017-02-08T02:56:17.454Z,1014.23
2017-02-08T02:57:27.411Z,1014.27
2017-02-08T02:58:37.292Z,1014.26
2017-02-08T02:59:47.924Z,1014.27
2017-02-08T03:00:58.164Z,1014.29
2017-02-08T03:02:08.800Z,1014.28
2017-02-08T03:03:19.390Z,1014.28
2017-02-08T03:04:30.035Z,1014.31
2017-02-08T03:05:40.689Z,1014.3
2017-02-08T03:06:50.949Z,1014.33
2017-02-08T03:08:00.846Z,1014.32
2017-02-08T03:09:11.443Z,1014.27
2017-02-08T03:10:21.692Z,1014.27
2017-02-08T03:11:31.937Z,1014.3
2017-02-08T03:12:42.580Z,1014.31
2017-02-08T03:13:53.211Z,1014.33
2017-02-08T03:15:04.159Z,1014.31
2017-02-08T03:16:14.835Z,1014.32
2017-02-08T03:17:25.467Z,1014.37
2017-02-08T03:18:35.719Z,1014.31
2017-02-08T03:19:45.958Z,1014.3
2017-02-08T03:20:56.494Z,1014.34
2017-02-08T03:22:07.169Z,1014.36
2017-02-08T03:23:17.416Z,1014.32
2017-02-08T03:24:26.888Z,1014.32
2017-02-08T03:25:36.794Z,1014.32
2017-02-08T03:26:47.332Z,1014.36
2017-02-08T03:27:57.584Z,1014.35
2017-02-08T03:29:07.831Z,1014.37
2017-02-08T03:30:18.454Z,1014.4
2017-02-08T03:31:29.081Z,1014.38
2017-02-08T03:32:40.007Z,1014.36
2017-02-08T03:33:50.640Z,1014.42
2017-02-08T03:35:01.262Z,1014.43
2017-02-08T03:36:11.116Z,1014.44
2017-02-08T03:37:21.362Z,1014.43
2017-02-08T03:38:31.964Z,1014.47
2017-02-08T03:39:41.863Z,1014.52
2017-02-08T03:40:52.497Z,1014.5
2017-02-08T03:42:02.773Z,1014.52
2017-02-08T03:43:12.638Z,1014.54
2017-02-08T03:44:23.030Z,1014.55
2017-02-08T03:45:33.267Z,1014.57
2017-02-08T03:46:42.742Z,1014.55
2017-02-08T03:47:53.369Z,1014.61
2017-02-08T03:49:04.035Z,1014.62
2017-02-08T03:50:14.963Z,1014.59
2017-02-08T03:51:25.605Z,1014.6
2017-02-08T03:52:36.226Z,1014.62
2017-02-08T03:53:46.465Z,1014.66
2017-02-08T03:54:56.711Z,1014.62
2017-02-08T03:56:07.469Z,1014.68
2017-02-08T03:57:18.103Z,1014.68
2017-02-08T03:58:27.962Z,1014.68
2017-02-08T03:59:38.204Z,1014.68
2017-02-08T04:00:48.450Z,1014.72
2017-02-08T04:01:59.332Z,1014.69
2017-02-08T04:03:08.804Z,1014.71
2017-02-08T04:04:19.434Z,1014.7
2017-02-08T04:05:30.083Z,1014.7
2017-02-08T04:06:40.330Z,1014.72
2017-02-08T04:07:51.325Z,1014.67
2017-02-08T04:09:01.578Z,1014.75
2017-02-08T04:10:12.221Z,1014.76
2017-02-08T04:11:22.073Z,1014.75
2017-02-08T04:12:32.362Z,1014.74
2017-02-08T04:13:43.153Z,1014.74
2017-02-08T04:14:53.392Z,1014.76
2017-02-08T04:16:03.264Z,1014.74
2017-02-08T04:17:13.133Z,1014.74
2017-02-08T04:18:23.371Z,1014.71
2017-02-08T04:19:34.257Z,1014.7
2017-02-08T04:20:44.501Z,1014.73
2017-02-08T04:21:53.959Z,1014.71
2017-02-08T04:23:04.203Z,1014.7
2017-02-08T04:24:14.062Z,1014.74
2017-02-08T04:25:24.935Z,1014.72
2017-02-08T04:26:35.204Z,1014.75
2017-02-08T04:27:45.454Z,1014.74
2017-02-08T04:28:55.702Z,1014.75
2017-02-08T04:30:06.324Z,1014.78
2017-02-08T04:31:16.710Z,1014.8
2017-02-08T04:32:26.557Z,1014.83
2017-02-08T04:33:36.404Z,1014.84
2017-02-08T04:34:46.648Z,1014.87
2017-02-08T04:35:57.271Z,1014.85
2017-02-08T04:37:07.223Z,1014.87
2017-02-08T04:38:17.076Z,1014.9
2017-02-08T04:39:26.930Z,1014.9
2017-02-08T04:40:37.558Z,1014.93
2017-02-08T04:41:48.192Z,1014.9
2017-02-08T04:42:58.734Z,1014.97
2017-02-08T04:44:08.597Z,1014.99
2017-02-08T04:45:19.235Z,1014.98
2017-02-08T04:46:29.084Z,1015
2017-02-08T04:47:39.727Z,1014.96
2017-02-08T04:48:49.933Z,1015.03
2017-02-08T04:50:00.568Z,1015.02
2017-02-08T04:51:11.212Z,1014.97
2017-02-08T04:52:21.846Z,1015.03
2017-02-08T04:53:32.492Z,1015.04
2017-02-08T04:54:42.902Z,1015.02
2017-02-08T04:55:53.151Z,1015.04
2017-02-08T04:57:03.788Z,1015.06
2017-02-08T04:58:14.435Z,1014.99
2017-02-08T04:59:25.089Z,1015.02
2017-02-08T05:00:36.032Z,1015.11
2017-02-08T05:01:46.700Z,1015.05
2017-02-08T05:02:56.946Z,1015.08
2017-02-08T05:04:07.200Z,1015.07
2017-02-08T05:05:17.483Z,1015.07
2017-02-08T05:06:27.680Z,1015.05
2017-02-08T05:07:38.312Z,1015.03
2017-02-08T05:08:48.580Z,1015.03
2017-02-08T05:09:59.213Z,1015.02
2017-02-08T05:11:09.461Z,1015.07
2017-02-08T05:12:19.855Z,1015.06
2017-02-08T05:13:30.093Z,1015.04
2017-02-08T05:14:40.330Z,1015.03
2017-02-08T05:15:50.964Z,1015.08
2017-02-08T05:17:01.211Z,1015.08
2017-02-08T05:18:10.930Z,1015.11
2017-02-08T05:19:21.174Z,1015.12
2017-02-08T05:20:31.805Z,1015.14
2017-02-08T05:21:42.053Z,1015.1
2017-02-08T05:22:52.294Z,1015.12
2017-02-08T05:24:03.170Z,1015.16
2017-02-08T05:25:13.400Z,1015.12
2017-02-08T05:26:23.638Z,1015.1
2017-02-08T05:27:34.318Z,1015.17
2017-02-08T05:28:44.550Z,1015.13
2017-02-08T05:29:55.538Z,1015.17
2017-02-08T05:31:06.163Z,1015.21
2017-02-08T05:32:16.409Z,1015.19
2017-02-08T05:33:25.877Z,1015.17
2017-02-08T05:34:36.195Z,1015.22
2017-02-08T05:35:46.802Z,1015.19
2017-02-08T05:36:56.650Z,1015.2
2017-02-08T05:38:06.898Z,1015.2
2017-02-08T05:39:17.009Z,1015.2
2017-02-08T05:40:27.649Z,1015.25
2017-02-08T05:41:38.245Z,1015.22
2017-02-08T05:42:48.492Z,1015.26
2017-02-08T05:43:58.358Z,1015.23
2017-02-08T05:45:07.816Z,1015.31
2017-02-08T05:46:18.443Z,1015.3
2017-02-08T05:47:28.646Z,1015.3
2017-02-08T05:48:39.281Z,1015.34
2017-02-08T05:49:49.906Z,1015.36
2017-02-08T05:51:00.156Z,1015.38
2017-02-08T05:52:10.392Z,1015.39
2017-02-08T05:53:21.282Z,1015.41
2017-02-08T05:54:31.537Z,1015.46
2017-02-08T05:55:42.187Z,1015.43
2017-02-08T05:56:52.834Z,1015.48
2017-02-08T05:58:02.687Z,1015.48
2017-02-08T05:59:13.184Z,1015.48
2017-02-08T06:00:23.841Z,1015.49
2017-02-08T06:01:34.487Z,1015.56
2017-02-08T06:02:44.358Z,1015.57
2017-02-08T06:03:54.628Z,1015.54
2017-02-08T06:05:06.216Z,1015.6
2017-02-08T06:06:16.072Z,1015.62
2017-02-08T06:07:26.325Z,1015.63
2017-02-08T06:08:36.587Z,1015.66
2017-02-08T06:09:46.844Z,1015.64
2017-02-08T06:10:57.244Z,1015.63
2017-02-08T06:12:07.875Z,1015.61
2017-02-08T06:13:18.518Z,1015.65
2017-02-08T06:14:29.163Z,1015.66
2017-02-08T06:15:39.408Z,1015.65
2017-02-08T06:16:49.809Z,1015.62
2017-02-08T06:17:59.681Z,1015.69
2017-02-08T06:19:10.312Z,1015.68
2017-02-08T06:20:20.559Z,1015.72
2017-02-08T06:21:30.799Z,1015.76
2017-02-08T06:22:41.684Z,1015.75
2017-02-08T06:23:52.320Z,1015.8
2017-02-08T06:25:02.187Z,1015.78
2017-02-08T06:26:12.043Z,1015.81
2017-02-08T06:27:21.895Z,1015.78
2017-02-08T06:28:32.875Z,1015.82
2017-02-08T06:29:43.510Z,1015.85
2017-02-08T06:30:53.371Z,1015.86
2017-02-08T06:32:03.635Z,1015.89
2017-02-08T06:33:14.270Z,1015.88
2017-02-08T06:34:25.013Z,1015.91
2017-02-08T06:35:35.652Z,1015.9
2017-02-08T06:36:46.284Z,1015.92
2017-02-08T06:37:56.899Z,1015.96
2017-02-08T06:39:06.758Z,1015.98
2017-02-08T06:40:17.150Z,1015.99
2017-02-08T06:41:27.005Z,1016.07
2017-02-08T06:42:37.637Z,1016.05
2017-02-08T06:43:47.101Z,1016.1
2017-02-08T06:44:57.766Z,1016.1
2017-02-08T06:46:08.793Z,1016.09
2017-02-08T06:47:19.036Z,1016.11
2017-02-08T06:48:29.302Z,1016.14
2017-02-08T06:49:39.590Z,1016.19
2017-02-08T06:50:50.243Z,1016.19
2017-02-08T06:52:01.592Z,1016.22
2017-02-08T06:53:11.865Z,1016.24
2017-02-08T06:54:22.107Z,1016.28
2017-02-08T06:55:32.348Z,1016.26
2017-02-08T06:56:41.825Z,1016.25
2017-02-08T06:57:51.975Z,1016.28
2017-02-08T06:59:02.223Z,1016.32
2017-02-08T07:00:12.861Z,1016.34
2017-02-08T07:01:23.108Z,1016.35
2017-02-08T07:02:33.371Z,1016.35
2017-02-08T07:03:43.980Z,1016.35
2017-02-08T07:04:54.608Z,1016.37
2017-02-08T07:06:05.286Z,1016.39
2017-02-08T07:07:15.531Z,1016.45
2017-02-08T07:08:25.386Z,1016.46
2017-02-08T07:09:36.346Z,1016.45
2017-02-08T07:10:46.224Z,1016.51
2017-02-08T07:11:56.474Z,1016.5
2017-02-08T07:13:07.165Z,1016.56
2017-02-08T07:14:17.425Z,1016.6
2017-02-08T07:15:28.202Z,1016.58
2017-02-08T07:16:38.440Z,1016.62
2017-02-08T07:17:49.074Z,1016.6
2017-02-08T07:18:58.921Z,1016.65
2017-02-08T07:20:09.461Z,1016.69
2017-02-08T07:21:19.908Z,1016.68
2017-02-08T07:22:29.856Z,1016.69
2017-02-08T07:23:40.114Z,1016.74
2017-02-08T07:24:50.390Z,1016.74
2017-02-08T07:26:01.024Z,1016.8
2017-02-08T07:27:11.871Z,1016.79
2017-02-08T07:28:21.732Z,1016.83
2017-02-08T07:29:32.369Z,1016.86
2017-02-08T07:30:42.623Z,1016.88
2017-02-08T07:31:52.882Z,1016.91
2017-02-08T07:33:03.151Z,1016.92
2017-02-08T07:34:13.780Z,1016.93
2017-02-08T07:35:24.049Z,1016.96
2017-02-08T07:36:34.721Z,1016.97
2017-02-08T07:37:45.014Z,1016.95
2017-02-08T07:38:55.299Z,1017
2017-02-08T07:40:05.546Z,1017.01
2017-02-08T07:41:16.471Z,1017.02
2017-02-08T07:42:27.127Z,1017
2017-02-08T07:43:37.740Z,1017.01
2017-02-08T07:44:48.377Z,1017.05
2017-02-08T07:45:58.668Z,1017.06
2017-02-08T07:47:09.348Z,1017
2017-02-08T07:48:19.210Z,1017.09
2017-02-08T07:49:30.149Z,1017.1
2017-02-08T07:50:41.526Z,1017.09
2017-02-08T07:51:52.167Z,1017.11
2017-02-08T07:53:02.454Z,1017.09
2017-02-08T07:54:13.470Z,1017.12
2017-02-08T07:55:23.719Z,1017.16
2017-02-08T07:56:33.983Z,1017.2
2017-02-08T07:57:44.225Z,1017.13
2017-02-08T07:58:54.866Z,1017.12
2017-02-08T08:00:05.078Z,1017.15
2017-02-08T08:01:14.941Z,1017.14
2017-02-08T08:02:24.804Z,1017.13
2017-02-08T08:03:35.082Z,1017.16
2017-02-08T08:04:45.707Z,1017.17
2017-02-08T08:05:56.255Z,1017.21
2017-02-08T08:07:06.905Z,1017.2
2017-02-08T08:08:17.538Z,1017.23
2017-02-08T08:09:27.397Z,1017.23
2017-02-08T08:10:38.036Z,1017.23
2017-02-08T08:11:48.633Z,1017.28
2017-02-08T08:12:59.264Z,1017.27
2017-02-08T08:14:09.525Z,1017.22
2017-02-08T08:15:19.374Z,1017.29
2017-02-08T08:16:29.627Z,1017.27
2017-02-08T08:17:40.706Z,1017.29
2017-02-08T08:18:50.961Z,1017.3
2017-02-08T08:20:00.813Z,1017.35
2017-02-08T08:21:10.281Z,1017.39
2017-02-08T08:22:20.519Z,1017.39
2017-02-08T08:23:30.540Z,1017.33
2017-02-08T08:24:40.400Z,1017.35
2017-02-08T08:25:51.037Z,1017.39
2017-02-08T08:27:01.685Z,1017.45
2017-02-08T08:28:11.919Z,1017.46
2017-02-08T08:29:22.921Z,1017.43
2017-02-08T08:30:33.173Z,1017.47
2017-02-08T08:31:43.854Z,1017.51
2017-02-08T08:32:54.114Z,1017.52
2017-02-08T08:34:04.376Z,1017.54
2017-02-08T08:35:14.547Z,1017.55
2017-02-08T08:36:25.189Z,1017.55
2017-02-08T08:37:34.679Z,1017.54
2017-02-08T08:38:44.539Z,1017.55
2017-02-08T08:39:54.402Z,1017.55
2017-02-08T08:41:04.800Z,1017.56
2017-02-08T08:42:15.041Z,1017.55
2017-02-08T08:43:25.136Z,1017.52
2017-02-08T08:44:35.148Z,1017.54
2017-02-08T08:45:45.424Z,1017.52
2017-02-08T08:46:55.448Z,1017.52
2017-02-08T08:48:06.082Z,1017.52
2017-02-08T08:49:15.952Z,1017.51
2017-02-08T08:50:26.208Z,1017.51
2017-02-08T08:51:36.088Z,1017.49
2017-02-08T08:52:46.098Z,1017.48
2017-02-08T08:53:56.358Z,1017.49
2017-02-08T08:55:06.595Z,1017.46
2017-02-08T08:56:16.843Z,1017.5
2017-02-08T08:57:27.128Z,1017.47
2017-02-08T08:58:36.894Z,1017.43
2017-02-08T08:59:47.544Z,1017.48
2017-02-08T09:00:57.791Z,1017.47
2017-02-08T09:02:08.038Z,1017.46
2017-02-08T09:03:18.304Z,1017.48
2017-02-08T09:04:29.189Z,1017.52
2017-02-08T09:05:39.479Z,1017.55
2017-02-08T09:06:49.741Z,1017.55
2017-02-08T09:07:59.989Z,1017.61
2017-02-08T09:09:09.838Z,1017.6
2017-02-08T09:10:19.610Z,1017.63
2017-02-08T09:11:29.470Z,1017.62
2017-02-08T09:12:40.114Z,1017.57
2017-02-08T09:13:50.362Z,1017.6
2017-02-08T09:15:00.635Z,1017.6
2017-02-08T09:16:11.125Z,1017.58
2017-02-08T09:17:21.757Z,1017.59
2017-02-08T09:18:31.228Z,1017.56
2017-02-08T09:19:41.499Z,1017.57
2017-02-08T09:20:51.740Z,1017.61
2017-02-08T09:22:02.669Z,1017.63
2017-02-08T09:23:13.302Z,1017.62
2017-02-08T09:24:23.548Z,1017.66
2017-02-08T09:25:34.184Z,1017.64
2017-02-08T09:26:44.881Z,1017.68
2017-02-08T09:27:55.614Z,1017.67
2017-02-08T09:29:06.873Z,1017.63
2017-02-08T09:30:17.510Z,1017.68
2017-02-08T09:31:27.775Z,1017.69
2017-02-08T09:32:38.433Z,1017.71
2017-02-08T09:33:49.235Z,1017.69
2017-02-08T09:34:59.121Z,1017.73
2017-02-08T09:36:09.365Z,1017.71
2017-02-08T09:37:19.999Z,1017.7
2017-02-08T09:38:30.649Z,1017.71
2017-02-08T09:39:41.254Z,1017.69
2017-02-08T09:40:51.493Z,1017.68
2017-02-08T09:42:01.740Z,1017.74
2017-02-08T09:43:11.980Z,1017.74
2017-02-08T09:44:22.218Z,1017.73
2017-02-08T09:45:32.775Z,1017.73
2017-02-08T09:46:43.012Z,1017.77
2017-02-08T09:47:52.867Z,1017.77
2017-02-08T09:49:03.514Z,1017.77
2017-02-08T09:50:13.760Z,1017.77
2017-02-08T09:51:24.758Z,1017.79
2017-02-08T09:52:35.424Z,1017.82
2017-02-08T09:53:45.289Z,1017.82
2017-02-08T09:54:55.926Z,1017.84
2017-02-08T09:56:06.172Z,1017.84
2017-02-08T09:57:17.097Z,1017.82
2017-02-08T09:58:27.737Z,1017.88
2017-02-08T09:59:37.993Z,1017.83
2017-02-08T10:00:48.247Z,1017.84
2017-02-08T10:01:58.959Z,1017.88
2017-02-08T10:03:09.553Z,1017.85
2017-02-08T10:04:19.849Z,1017.88
2017-02-08T10:05:30.486Z,1017.87
2017-02-08T10:06:41.124Z,1017.89
2017-02-08T10:07:51.772Z,1017.94
2017-02-08T10:09:02.664Z,1017.94
2017-02-08T10:10:13.290Z,1017.95
2017-02-08T10:11:23.948Z,1017.97
2017-02-08T10:12:34.585Z,1018.04
2017-02-08T10:13:45.222Z,1018.02
2017-02-08T10:14:55.229Z,1018.03
2017-02-08T10:16:05.906Z,1018.04
2017-02-08T10:17:16.542Z,1018.08
2017-02-08T10:18:27.180Z,1018.05
2017-02-08T10:19:37.824Z,1018.09
2017-02-08T10:20:47.941Z,1018.09
2017-02-08T10:21:58.180Z,1018.11
2017-02-08T10:23:08.421Z,1018.12
2017-02-08T10:24:19.057Z,1018.1
2017-02-08T10:25:28.922Z,1018.14
2017-02-08T10:26:39.519Z,1018.13
2017-02-08T10:27:50.167Z,1018.13
2017-02-08T10:29:00.433Z,1018.17
2017-02-08T10:30:10.685Z,1018.15
2017-02-08T10:31:20.545Z,1018.18
2017-02-08T10:32:30.918Z,1018.17
2017-02-08T10:33:41.194Z,1018.18
2017-02-08T10:34:51.835Z,1018.19
2017-02-08T10:36:01.708Z,1018.22
2017-02-08T10:37:12.365Z,1018.18
2017-02-08T10:38:22.707Z,1018.21
2017-02-08T10:39:32.578Z,1018.25
2017-02-08T10:40:43.229Z,1018.21
2017-02-08T10:41:53.123Z,1018.26
2017-02-08T10:43:03.005Z,1018.29
2017-02-08T10:44:13.028Z,1018.26
2017-02-08T10:45:22.886Z,1018.25
2017-02-08T10:46:33.130Z,1018.22
2017-02-08T10:47:43.781Z,1018.21
2017-02-08T10:48:54.425Z,1018.23
2017-02-08T10:50:05.001Z,1018.21
2017-02-08T10:51:14.874Z,1018.24
2017-02-08T10:52:25.525Z,1018.25
2017-02-08T10:53:35.382Z,1018.26
2017-02-08T10:54:45.621Z,1018.27
2017-02-08T10:55:55.756Z,1018.25
2017-02-08T10:57:06.008Z,1018.27
2017-02-08T10:58:15.901Z,1018.25
2017-02-08T10:59:25.808Z,1018.28
2017-02-08T11:00:35.672Z,1018.24
2017-02-08T11:01:46.420Z,1018.27
2017-02-08T11:02:57.060Z,1018.28
2017-02-08T11:04:07.305Z,1018.22
2017-02-08T11:05:17.944Z,1018.26
2017-02-08T11:06:28.585Z,1018.25
2017-02-08T11:07:39.163Z,1018.27
2017-02-08T11:08:49.416Z,1018.28
2017-02-08T11:09:59.677Z,1018.21
2017-02-08T11:11:09.551Z,1018.2
2017-02-08T11:12:18.631Z,1018.24
2017-02-08T11:13:29.390Z,1018.25
2017-02-08T11:14:39.260Z,1018.25
2017-02-08T11:15:50.247Z,1018.25
2017-02-08T11:17:00.495Z,1018.26
2017-02-08T11:18:11.135Z,1018.3
2017-02-08T11:19:21.734Z,1018.32
2017-02-08T11:20:31.990Z,1018.34
2017-02-08T11:21:42.266Z,1018.38
2017-02-08T11:22:52.942Z,1018.38
2017-02-08T11:24:02.800Z,1018.41
2017-02-08T11:25:13.695Z,1018.43
2017-02-08T11:26:23.945Z,1018.38
2017-02-08T11:27:34.586Z,1018.37
2017-02-08T11:28:44.830Z,1018.41
2017-02-08T11:29:55.097Z,1018.39
2017-02-08T11:31:05.660Z,1018.39
2017-02-08T11:32:15.951Z,1018.4
2017-02-08T11:33:26.197Z,1018.37
2017-02-08T11:34:36.076Z,1018.39
2017-02-08T11:35:45.995Z,1018.38
2017-02-08T11:36:56.940Z,1018.38
2017-02-08T11:38:07.570Z,1018.37
2017-02-08T11:39:17.056Z,1018.34
2017-02-08T11:40:27.296Z,1018.34
2017-02-08T11:41:37.573Z,1018.34
2017-02-08T11:42:48.386Z,1018.34
2017-02-08T11:43:59.023Z,1018.37
2017-02-08T11:45:09.680Z,1018.37
2017-02-08T11:46:19.167Z,1018.37
2017-02-08T11:47:29.417Z,1018.39
2017-02-08T11:48:39.637Z,1018.38
2017-02-08T11:49:49.882Z,1018.34
2017-02-08T11:51:00.516Z,1018.36
2017-02-08T11:52:11.073Z,1018.41
2017-02-08T11:53:21.327Z,1018.38
2017-02-08T11:54:32.118Z,1018.37
2017-02-08T11:55:42.748Z,1018.35
2017-02-08T11:56:53.024Z,1018.32
2017-02-08T11:58:03.284Z,1018.35
2017-02-08T11:59:13.146Z,1018.36
2017-02-08T12:00:23.642Z,1018.36
2017-02-08T12:01:34.281Z,1018.35
2017-02-08T12:02:44.174Z,1018.42
2017-02-08T12:03:54.835Z,1018.38
2017-02-08T12:05:05.106Z,1018.36
2017-02-08T12:06:14.939Z,1018.38
2017-02-08T12:07:24.803Z,1018.39
2017-02-08T12:08:35.480Z,1018.38
2017-02-08T12:09:46.124Z,1018.37
2017-02-08T12:10:56.800Z,1018.4
2017-02-08T12:12:07.422Z,1018.38
2017-02-08T12:13:17.317Z,1018.39
2017-02-08T12:14:27.581Z,1018.45
2017-02-08T12:15:37.838Z,1018.38
2017-02-08T12:16:48.562Z,1018.41
2017-02-08T12:17:58.776Z,1018.39
2017-02-08T12:19:09.035Z,1018.46
2017-02-08T12:20:18.545Z,1018.42
2017-02-08T12:21:28.410Z,1018.44
2017-02-08T12:22:38.673Z,1018.43
2017-02-08T12:23:49.046Z,1018.36
2017-02-08T12:24:59.707Z,1018.43
2017-02-08T12:26:09.578Z,1018.39
2017-02-08T12:27:19.857Z,1018.38
2017-02-08T12:28:30.115Z,1018.4
2017-02-08T12:29:40.551Z,1018.36
2017-02-08T12:30:50.832Z,1018.36
2017-02-08T12:32:00.701Z,1018.37
2017-02-08T12:33:10.576Z,1018.35
2017-02-08T12:34:21.229Z,1018.37
2017-02-08T12:35:31.273Z,1018.37
2017-02-08T12:36:41.907Z,1018.39
2017-02-08T12:37:52.544Z,1018.38
2017-02-08T12:39:02.395Z,1018.42
2017-02-08T12:40:12.271Z,1018.44
2017-02-08T12:41:22.828Z,1018.45
2017-02-08T12:42:33.467Z,1018.44
2017-02-08T12:43:43.321Z,1018.46
2017-02-08T12:44:53.975Z,1018.46
2017-02-08T12:46:04.623Z,1018.43
2017-02-08T12:47:14.742Z,1018.42
2017-02-08T12:48:25.386Z,1018.44
2017-02-08T12:49:35.243Z,1018.39
2017-02-08T12:50:45.877Z,1018.38
2017-02-08T12:51:55.751Z,1018.39
2017-02-08T12:53:06.314Z,1018.35
2017-02-08T12:54:16.590Z,1018.4
2017-02-08T12:55:26.082Z,1018.38
2017-02-08T12:56:36.740Z,1018.38
2017-02-08T12:57:46.613Z,1018.37
2017-02-08T12:58:57.373Z,1018.38
2017-02-08T13:00:08.022Z,1018.34
2017-02-08T13:01:17.499Z,1018.32
2017-02-08T13:02:27.397Z,1018.39
2017-02-08T13:03:37.668Z,1018.37
2017-02-08T13:04:48.593Z,1018.34
2017-02-08T13:05:58.850Z,1018.36
2017-02-08T13:07:09.108Z,1018.37
2017-02-08T13:08:19.734Z,1018.33
2017-02-08T13:09:30.398Z,1018.34
2017-02-08T13:10:40.912Z,1018.38
2017-02-08T13:11:51.562Z,1018.37
2017-02-08T13:13:01.846Z,1018.4
2017-02-08T13:14:11.705Z,1018.36
2017-02-08T13:15:22.427Z,1018.42
2017-02-08T13:16:33.032Z,1018.37
2017-02-08T13:17:43.281Z,1018.41
2017-02-08T13:18:53.968Z,1018.39
2017-02-08T13:20:04.655Z,1018.39
2017-02-08T13:21:15.288Z,1018.44
2017-02-08T13:22:25.873Z,1018.45
2017-02-08T13:23:36.519Z,1018.43
2017-02-08T13:24:47.168Z,1018.39
2017-02-08T13:25:57.799Z,1018.42
2017-02-08T13:27:08.094Z,1018.45
2017-02-08T13:28:18.653Z,1018.45
2017-02-08T13:29:28.505Z,1018.45
2017-02-08T13:30:38.762Z,1018.43
2017-02-08T13:31:49.010Z,1018.45
2017-02-08T13:32:59.279Z,1018.42
2017-02-08T13:34:10.240Z,1018.41
2017-02-08T13:35:20.873Z,1018.4
2017-02-08T13:36:31.158Z,1018.43
2017-02-08T13:37:41.429Z,1018.45
2017-02-08T13:38:52.061Z,1018.38
2017-02-08T13:40:02.803Z,1018.4
2017-02-08T13:41:13.357Z,1018.45
2017-02-08T13:42:24.039Z,1018.4
2017-02-08T13:43:33.935Z,1018.45
2017-02-08T13:44:44.179Z,1018.47
2017-02-08T13:45:54.929Z,1018.44
2017-02-08T13:47:05.571Z,1018.53
2017-02-08T13:48:15.429Z,1018.5
2017-02-08T13:49:26.065Z,1018.5
2017-02-08T13:50:35.143Z,1018.49
2017-02-08T13:51:45.741Z,1018.54
2017-02-08T13:52:55.648Z,1018.55
2017-02-08T13:54:06.294Z,1018.53
2017-02-08T13:55:16.951Z,1018.51
2017-02-08T13:56:27.219Z,1018.56
2017-02-08T13:57:37.783Z,1018.53
2017-02-08T13:58:47.243Z,1018.54
2017-02-08T13:59:57.505Z,1018.59
2017-02-08T14:01:07.745Z,1018.59
2017-02-08T14:02:18.412Z,1018.65
2017-02-08T14:03:29.019Z,1018.61
2017-02-08T14:04:38.887Z,1018.61
2017-02-08T14:05:48.763Z,1018.66
2017-02-08T14:06:59.426Z,1018.65
2017-02-08T14:08:10.073Z,1018.65
2017-02-08T14:09:20.983Z,1018.71
2017-02-08T14:10:31.230Z,1018.73
2017-02-08T14:11:41.860Z,1018.72
2017-02-08T14:12:52.498Z,1018.66
2017-02-08T14:14:03.136Z,1018.67